createdAt,value
2023-04-18T00:02:07.302Z,5.55
2023-04-18T00:04:34.109Z,4.85
2023-04-18T00:07:00.974Z,4.75
2023-04-18T00:09:27.606Z,5.03
2023-04-18T00:11:54.239Z,4.97
2023-04-18T00:14:20.713Z,5.03
2023-04-18T00:16:47.332Z,5.30
2023-04-18T00:19:14.330Z,5.90
2023-04-18T00:21:44.659Z,4.90
2023-04-18T00:24:11.660Z,7.32
2023-04-18T00:26:38.143Z,5.40
2023-04-18T00:29:04.964Z,5.35
2023-04-18T00:31:31.701Z,5.35
2023-04-18T00:33:58.261Z,5.10
2023-04-18T00:36:24.716Z,5.55
2023-04-18T00:38:51.181Z,6.28
2023-04-18T00:41:18.052Z,4.90
2023-04-18T00:43:44.582Z,5.65
2023-04-18T00:46:11.265Z,6.03
2023-04-18T00:48:39.145Z,5.30
2023-04-18T00:51:07.677Z,5.95
2023-04-18T00:53:35.960Z,7.95
2023-04-18T00:56:02.876Z,5.70
2023-04-18T00:58:32.020Z,5.78
2023-04-18T01:00:58.502Z,5.55
2023-04-18T01:03:28.332Z,6.95
2023-04-18T01:05:55.542Z,4.95
2023-04-18T01:08:22.134Z,5.78
2023-04-18T01:10:49.362Z,6.75
2023-04-18T01:13:18.974Z,6.97
2023-04-18T01:15:48.423Z,6.50
2023-04-18T01:18:19.002Z,5.97
2023-04-18T01:20:48.194Z,6.20
2023-04-18T01:23:16.055Z,5.53
2023-04-18T01:25:43.278Z,6.15
2023-04-18T01:28:11.043Z,6.43
2023-04-18T01:30:37.693Z,6.55
2023-04-18T01:33:05.517Z,6.50
2023-04-18T01:35:33.334Z,5.95
2023-04-18T01:38:00.403Z,6.78
2023-04-18T01:40:27.420Z,6.07
2023-04-18T01:42:53.877Z,6.88
2023-04-18T01:45:20.392Z,6.70
2023-04-18T01:47:47.058Z,7.00
2023-04-18T01:50:14.458Z,5.80
2023-04-18T01:52:42.621Z,7.82
2023-04-18T01:55:09.566Z,6.15
2023-04-18T01:57:36.763Z,6.60
2023-04-18T02:00:06.115Z,9.02
2023-04-18T02:02:41.138Z,8.10
2023-04-18T02:05:08.196Z,6.93
2023-04-18T02:07:38.152Z,7.15
2023-04-18T02:10:38.753Z,7.15
2023-04-18T02:13:06.660Z,7.65
2023-04-18T02:15:33.783Z,6.68
2023-04-18T02:18:00.430Z,8.35
2023-04-18T02:20:31.565Z,8.52
2023-04-18T02:25:42.751Z,7.57
2023-04-18T02:28:09.328Z,7.07
2023-04-18T02:30:35.954Z,8.10
2023-04-18T02:33:02.563Z,7.50
2023-04-18T02:35:29.227Z,7.97
2023-04-18T02:37:55.764Z,8.40
2023-04-18T02:40:22.271Z,7.78
2023-04-18T02:42:48.692Z,7.97
2023-04-18T02:45:15.267Z,10.48
2023-04-18T02:47:53.601Z,9.10
2023-04-18T02:50:20.715Z,7.18
2023-04-18T02:52:47.349Z,8.30
2023-04-18T02:55:15.488Z,8.35
2023-04-18T02:57:43.955Z,7.47
2023-04-18T03:00:35.973Z,8.63
2023-04-18T03:03:22.055Z,6.80
2023-04-18T03:05:56.902Z,8.50
2023-04-18T03:08:23.689Z,7.93
2023-04-18T03:10:50.146Z,8.50
2023-04-18T03:13:19.233Z,8.60
2023-04-18T03:15:45.901Z,8.88
2023-04-18T03:18:13.157Z,9.70
2023-04-18T03:20:41.050Z,11.30
2023-04-18T03:23:08.041Z,8.57
2023-04-18T03:25:35.481Z,8.93
2023-04-18T03:28:03.118Z,8.70
2023-04-18T03:30:29.753Z,10.25
2023-04-18T03:32:59.327Z,9.27
2023-04-18T03:35:25.962Z,9.02
2023-04-18T03:37:52.561Z,10.60
2023-04-18T03:40:24.023Z,8.65
2023-04-18T03:42:52.697Z,10.43
2023-04-18T03:45:20.058Z,10.18
2023-04-18T03:47:47.259Z,10.68
2023-04-18T03:50:14.615Z,9.80
2023-04-18T03:52:42.773Z,8.80
2023-04-18T03:55:09.620Z,9.40
2023-04-18T03:57:36.052Z,8.57
2023-04-18T04:00:08.072Z,8.95
2023-04-18T04:02:42.190Z,10.23
2023-04-18T04:05:11.152Z,9.88
2023-04-18T04:07:38.271Z,8.48
2023-04-18T04:10:06.369Z,10.27
2023-04-18T04:12:32.805Z,10.13
2023-04-18T04:14:59.399Z,10.13
2023-04-18T04:17:26.245Z,9.35
2023-04-18T04:19:53.108Z,9.65
2023-04-18T04:22:20.813Z,8.95
2023-04-18T04:24:47.857Z,10.05
2023-04-18T04:27:18.788Z,9.30
2023-04-18T04:29:45.908Z,8.30
2023-04-18T04:32:13.470Z,9.02
2023-04-18T04:34:41.709Z,8.85
2023-04-18T04:37:10.555Z,8.63
2023-04-18T04:39:46.264Z,8.18
2023-04-18T04:42:28.481Z,7.00
2023-04-18T04:45:03.418Z,9.93
2023-04-18T04:47:29.985Z,9.07
2023-04-18T04:49:56.529Z,9.18
2023-04-18T04:52:22.974Z,23.30
2023-04-18T04:54:51.451Z,8.45
2023-04-18T04:57:19.912Z,9.35
2023-04-18T04:59:46.390Z,9.48
2023-04-18T05:02:13.099Z,15.10
2023-04-18T05:04:40.950Z,15.75
2023-04-18T05:07:07.647Z,9.85
2023-04-18T05:09:34.072Z,10.25
2023-04-18T05:12:01.474Z,9.90
2023-04-18T05:14:27.936Z,7.75
2023-04-18T05:16:55.538Z,8.35
2023-04-18T05:19:22.012Z,7.75
2023-04-18T05:21:48.432Z,7.78
2023-04-18T05:24:15.130Z,8.18
2023-04-18T05:26:41.854Z,8.93
2023-04-18T05:29:08.449Z,8.68
2023-04-18T05:31:34.867Z,7.93
2023-04-18T05:34:01.309Z,7.45
2023-04-18T05:36:28.554Z,10.75
2023-04-18T05:38:55.004Z,9.18
2023-04-18T05:41:21.518Z,8.18
2023-04-18T05:44:01.923Z,8.70
2023-04-18T05:46:31.859Z,9.35
2023-04-18T05:48:58.338Z,8.80
2023-04-18T05:51:24.749Z,9.60
2023-04-18T05:53:51.170Z,8.35
2023-04-18T05:56:17.632Z,13.73
2023-04-18T05:58:45.724Z,9.80
2023-04-18T06:01:14.169Z,7.70
2023-04-18T06:03:41.431Z,7.95
2023-04-18T06:06:08.209Z,9.48
2023-04-18T06:08:34.636Z,11.15
2023-04-18T06:11:01.110Z,7.35
2023-04-18T06:13:27.525Z,8.68
2023-04-18T06:15:54.038Z,9.43
2023-04-18T06:18:20.791Z,7.88
2023-04-18T06:20:47.238Z,6.63
2023-04-18T06:23:13.712Z,8.48
2023-04-18T06:25:41.693Z,9.85
2023-04-18T06:28:08.331Z,11.02
2023-04-18T06:30:34.906Z,9.55
2023-04-18T06:33:01.577Z,7.43
2023-04-18T06:35:30.999Z,8.45
2023-04-18T06:37:57.446Z,14.50
2023-04-18T06:40:23.958Z,8.07
2023-04-18T06:42:50.361Z,10.18
2023-04-18T06:45:17.517Z,8.20
2023-04-18T06:47:44.443Z,8.10
2023-04-18T06:50:11.425Z,11.15
2023-04-18T06:52:40.614Z,9.80
2023-04-18T06:55:09.107Z,8.30
2023-04-18T06:57:35.689Z,11.70
2023-04-18T07:00:02.339Z,9.73
2023-04-18T07:02:28.899Z,7.38
2023-04-18T07:04:55.374Z,7.97
2023-04-18T07:07:22.172Z,8.25
2023-04-18T07:09:49.875Z,9.07
2023-04-18T07:12:16.626Z,9.35
2023-04-18T07:14:43.054Z,10.00
2023-04-18T07:17:09.665Z,8.15
2023-04-18T07:19:36.213Z,8.02
2023-04-18T07:22:02.648Z,37.28
2023-04-18T07:24:29.308Z,9.70
2023-04-18T07:26:55.729Z,7.65
2023-04-18T07:29:22.295Z,8.80
2023-04-18T07:31:49.202Z,8.90
2023-04-18T07:34:16.132Z,8.85
2023-04-18T07:36:42.696Z,8.70
2023-04-18T07:39:09.129Z,7.65
2023-04-18T07:41:35.625Z,8.07
2023-04-18T07:44:04.191Z,8.05
2023-04-18T07:46:32.320Z,8.63
2023-04-18T07:48:59.045Z,10.00
2023-04-18T07:51:31.260Z,8.95
2023-04-18T07:53:58.616Z,7.18
2023-04-18T07:56:25.874Z,7.30
2023-04-18T07:58:52.759Z,6.68
2023-04-18T08:01:21.026Z,6.80
2023-04-18T08:03:50.529Z,6.38
2023-04-18T08:06:17.746Z,7.90
2023-04-18T08:08:44.313Z,8.15
2023-04-18T08:11:10.701Z,9.55
2023-04-18T08:13:37.143Z,6.78
2023-04-18T08:16:03.715Z,7.70
2023-04-18T08:18:30.204Z,8.25
2023-04-18T08:20:56.634Z,8.55
2023-04-18T08:23:23.135Z,8.63
2023-04-18T08:25:49.585Z,9.98
2023-04-18T08:28:16.157Z,7.18
2023-04-18T08:30:43.933Z,9.23
2023-04-18T08:33:10.657Z,10.60
2023-04-18T08:35:37.123Z,7.88
2023-04-18T08:38:03.564Z,10.65
2023-04-18T08:40:30.288Z,8.60
2023-04-18T08:42:57.726Z,7.93
2023-04-18T08:45:24.209Z,7.78
2023-04-18T08:47:51.804Z,8.73
2023-04-18T08:50:18.410Z,7.45
2023-04-18T08:52:48.770Z,15.23
2023-04-18T08:55:16.121Z,8.77
2023-04-18T08:57:42.676Z,8.95
2023-04-18T09:00:10.401Z,7.88
2023-04-18T09:02:42.758Z,8.82
2023-04-18T09:05:18.937Z,8.95
2023-04-18T09:07:46.575Z,21.67
2023-04-18T09:10:13.824Z,8.93
2023-04-18T09:12:42.617Z,9.73
2023-04-18T09:15:14.084Z,9.15
2023-04-18T09:17:45.341Z,9.00
2023-04-18T09:20:15.326Z,10.43
2023-04-18T09:22:57.761Z,9.02
2023-04-18T09:25:26.058Z,8.90
2023-04-18T09:27:53.151Z,8.15
2023-04-18T09:30:39.792Z,10.75
2023-04-18T09:35:37.558Z,9.77
2023-04-18T09:38:04.678Z,9.30
2023-04-18T09:40:31.934Z,9.27
2023-04-18T09:42:58.378Z,12.10
2023-04-18T09:45:25.550Z,9.55
2023-04-18T09:47:53.559Z,10.15
2023-04-18T09:50:20.861Z,10.88
2023-04-18T09:52:48.348Z,10.63
2023-04-18T09:55:19.829Z,10.63
2023-04-18T09:57:48.628Z,9.18
2023-04-18T10:00:26.645Z,10.90
2023-04-18T10:02:58.377Z,10.93
2023-04-18T10:05:31.737Z,9.88
2023-04-18T10:07:58.532Z,12.40
2023-04-18T10:10:25.564Z,10.63
2023-04-18T10:12:55.261Z,9.57
2023-04-18T10:15:24.225Z,11.52
2023-04-18T10:18:03.302Z,12.85
2023-04-18T10:20:32.363Z,11.93
2023-04-18T10:23:00.435Z,11.90
2023-04-18T10:25:39.065Z,12.57
2023-04-18T10:28:09.593Z,12.55
2023-04-18T10:30:42.189Z,12.35
2023-04-18T10:33:32.457Z,12.40
2023-04-18T10:36:03.892Z,12.77
2023-04-18T10:38:31.568Z,13.38
2023-04-18T10:41:22.092Z,13.82
2023-04-18T10:44:09.553Z,12.80
2023-04-18T10:46:39.521Z,16.17
2023-04-18T10:49:25.825Z,12.27
2023-04-18T10:51:58.769Z,13.88
2023-04-18T10:54:31.221Z,15.05
2023-04-18T10:57:01.815Z,14.75
2023-04-18T10:59:29.912Z,13.68
2023-04-18T11:02:18.962Z,15.35
2023-04-18T11:04:50.997Z,13.43
2023-04-18T11:07:17.468Z,12.90
2023-04-18T11:09:54.505Z,13.52
2023-04-18T11:12:21.214Z,13.30
2023-04-18T11:14:54.416Z,12.20
2023-04-18T11:17:26.305Z,15.45
2023-04-18T11:20:09.088Z,12.98
2023-04-18T11:22:50.241Z,14.05
2023-04-18T11:25:17.944Z,12.40
2023-04-18T11:27:46.833Z,14.25
2023-04-18T11:30:14.583Z,16.73
2023-04-18T11:35:12.434Z,13.48
2023-04-18T11:37:39.910Z,14.15
2023-04-18T11:40:09.292Z,12.40
2023-04-18T11:42:37.718Z,15.32
2023-04-18T11:45:08.553Z,13.13
2023-04-18T11:47:35.087Z,12.35
2023-04-18T11:50:06.978Z,13.93
2023-04-18T11:52:34.598Z,11.95
2023-04-18T11:55:19.028Z,12.48
2023-04-18T11:57:55.839Z,13.48
2023-04-18T12:00:42.502Z,11.80
2023-04-18T12:03:16.863Z,11.32
2023-04-18T12:05:43.825Z,12.88
2023-04-18T12:08:20.631Z,14.60
2023-04-18T12:10:48.843Z,14.55
2023-04-18T12:13:15.263Z,10.52
2023-04-18T12:15:44.402Z,11.40
2023-04-18T12:18:14.197Z,11.93
2023-04-18T12:20:46.604Z,11.48
2023-04-18T12:23:37.184Z,11.65
2023-04-18T12:26:14.555Z,10.73
2023-04-18T12:28:45.666Z,13.48
2023-04-18T12:31:12.840Z,10.70
2023-04-18T12:33:39.323Z,13.88
2023-04-18T12:36:08.203Z,11.98
2023-04-18T12:38:35.570Z,12.70
2023-04-18T12:41:02.176Z,11.35
2023-04-18T12:43:28.595Z,10.82
2023-04-18T12:45:55.127Z,11.50
2023-04-18T12:48:21.542Z,10.85
2023-04-18T12:50:47.963Z,8.85
2023-04-18T12:53:14.360Z,7.95
2023-04-18T12:55:41.122Z,10.13
2023-04-18T12:58:07.600Z,8.68
2023-04-18T13:00:34.178Z,8.10
2023-04-18T13:03:01.123Z,7.30
2023-04-18T13:05:32.965Z,6.78
2023-04-18T13:08:12.782Z,8.40
2023-04-18T13:10:43.255Z,7.28
2023-04-18T13:13:09.699Z,6.50
2023-04-18T13:15:36.236Z,9.40
2023-04-18T13:18:05.857Z,6.97
2023-04-18T13:20:33.802Z,8.82
2023-04-18T13:23:01.767Z,6.82
2023-04-18T13:25:28.232Z,6.75
2023-04-18T13:27:55.128Z,6.13
2023-04-18T13:30:21.532Z,6.43
2023-04-18T13:32:48.019Z,6.55
2023-04-18T13:35:14.673Z,6.40
2023-04-18T13:37:41.257Z,6.10
2023-04-18T13:40:08.219Z,5.80
2023-04-18T13:42:36.381Z,5.65
2023-04-18T13:45:03.262Z,5.45
2023-04-18T13:47:29.931Z,5.97
2023-04-18T13:49:57.648Z,5.25
2023-04-18T13:52:24.152Z,5.65
2023-04-18T13:54:50.663Z,5.50
2023-04-18T13:57:17.096Z,5.40
2023-04-18T13:59:43.755Z,5.25
2023-04-18T14:02:10.465Z,5.28
2023-04-18T14:04:37.497Z,5.10
2023-04-18T14:07:06.133Z,5.00
2023-04-18T14:09:32.667Z,5.50
2023-04-18T14:11:59.272Z,6.28
2023-04-18T14:14:25.758Z,5.15
2023-04-18T14:16:53.564Z,5.60
2023-04-18T14:19:20.109Z,4.85
2023-04-18T14:21:47.099Z,4.38
2023-04-18T14:24:14.090Z,5.22
2023-04-18T14:26:40.698Z,5.32
2023-04-18T14:29:07.166Z,5.13
2023-04-18T14:31:33.598Z,6.32
2023-04-18T14:34:00.042Z,5.10
2023-04-18T14:36:27.125Z,4.88
2023-04-18T14:38:54.597Z,4.35
2023-04-18T14:41:21.321Z,4.60
2023-04-18T14:43:47.792Z,4.45
2023-04-18T14:46:18.109Z,4.38
2023-04-18T14:48:46.356Z,4.97
2023-04-18T14:51:12.937Z,4.40
2023-04-18T14:53:39.349Z,4.70
2023-04-18T14:56:06.075Z,4.43
2023-04-18T14:58:32.554Z,4.63
2023-04-18T15:00:59.010Z,4.22
2023-04-18T15:03:25.558Z,4.10
2023-04-18T15:05:53.169Z,4.40
2023-04-18T15:08:19.632Z,4.28
2023-04-18T15:10:47.464Z,3.83
2023-04-18T15:13:13.880Z,3.97
2023-04-18T15:15:40.473Z,4.20
2023-04-18T15:18:08.239Z,3.90
2023-04-18T15:20:36.893Z,8.15
2023-04-18T15:23:03.401Z,5.68
2023-04-18T15:25:30.556Z,5.07
2023-04-18T15:27:58.149Z,3.92
2023-04-18T15:30:25.269Z,4.28
2023-04-18T15:32:52.201Z,3.72
2023-04-18T15:35:18.745Z,3.90
2023-04-18T15:37:45.146Z,3.30
2023-04-18T15:40:16.045Z,3.50
2023-04-18T15:42:43.546Z,3.67
2023-04-18T15:45:10.929Z,3.83
2023-04-18T15:47:38.653Z,3.40
2023-04-18T15:50:05.892Z,3.75
2023-04-18T15:52:32.502Z,4.00
2023-04-18T15:54:59.067Z,3.55
2023-04-18T15:57:25.553Z,3.45
2023-04-18T15:59:52.136Z,3.92
2023-04-18T16:02:18.636Z,3.35
2023-04-18T16:04:45.473Z,5.47
2023-04-18T16:07:12.276Z,3.55
2023-04-18T16:09:38.700Z,3.58
2023-04-18T16:12:07.073Z,3.42
2023-04-18T16:14:33.640Z,6.38
2023-04-18T16:17:00.463Z,4.95
2023-04-18T16:19:26.991Z,4.45
2023-04-18T16:21:53.391Z,5.03
2023-04-18T16:24:19.783Z,4.82
2023-04-18T16:26:46.288Z,5.90
2023-04-18T16:29:12.719Z,4.05
2023-04-18T16:31:39.183Z,4.00
2023-04-18T16:34:05.735Z,4.25
2023-04-18T16:36:35.283Z,4.85
2023-04-18T16:39:01.733Z,5.22
2023-04-18T16:41:28.189Z,3.90
2023-04-18T16:43:54.609Z,3.67
2023-04-18T16:46:21.067Z,6.40
2023-04-18T16:48:48.380Z,4.63
2023-04-18T16:51:15.847Z,5.53
2023-04-18T16:53:42.286Z,4.90
2023-04-18T16:56:09.100Z,4.20
2023-04-18T16:58:35.603Z,4.20
2023-04-18T17:01:02.257Z,3.70
2023-04-18T17:03:28.782Z,4.05
2023-04-18T17:05:55.856Z,4.88
2023-04-18T17:08:22.304Z,3.97
2023-04-18T17:10:51.788Z,4.40
2023-04-18T17:13:18.466Z,5.03
2023-04-18T17:15:44.943Z,4.97
2023-04-18T17:18:11.660Z,3.42
2023-04-18T17:20:38.145Z,3.60
2023-04-18T17:23:04.587Z,3.78
2023-04-18T17:25:31.029Z,3.50
2023-04-18T17:27:57.476Z,5.25
2023-04-18T17:30:23.949Z,3.75
2023-04-18T17:32:50.454Z,3.60
2023-04-18T17:35:16.968Z,3.55
2023-04-18T17:37:43.416Z,3.55
2023-04-18T17:40:11.566Z,4.20
2023-04-18T17:42:38.317Z,3.85
2023-04-18T17:45:09.447Z,3.70
2023-04-18T17:47:36.649Z,4.18
2023-04-18T17:50:07.053Z,3.60
2023-04-18T17:52:33.438Z,3.72
2023-04-18T17:55:01.533Z,4.05
2023-04-18T17:57:30.583Z,3.83
2023-04-18T17:59:57.114Z,3.53
2023-04-18T18:02:23.790Z,3.95
2023-04-18T18:04:51.354Z,4.75
2023-04-18T18:07:18.318Z,4.22
2023-04-18T18:09:45.505Z,3.80
2023-04-18T18:12:12.179Z,4.00
2023-04-18T18:14:40.408Z,5.03
2023-04-18T18:17:06.899Z,4.82
2023-04-18T18:19:36.170Z,4.03
2023-04-18T18:22:02.700Z,3.88
2023-04-18T18:24:29.188Z,3.88
2023-04-18T18:26:56.772Z,3.63
2023-04-18T18:29:23.280Z,5.20
2023-04-18T18:31:49.879Z,4.55
2023-04-18T18:34:16.878Z,5.13
2023-04-18T18:36:43.319Z,4.05
2023-04-18T18:39:11.030Z,5.57
2023-04-18T18:41:37.531Z,5.03
2023-04-18T18:44:04.108Z,5.40
2023-04-18T18:46:30.998Z,4.65
2023-04-18T18:48:57.565Z,4.25
2023-04-18T18:51:24.015Z,4.68
2023-04-18T18:53:50.512Z,3.75
2023-04-18T18:56:17.024Z,4.28
2023-04-18T18:58:43.751Z,4.40
2023-04-18T19:01:11.448Z,4.78
2023-04-18T19:03:38.025Z,3.90
2023-04-18T19:06:05.839Z,5.07
2023-04-18T19:08:32.384Z,4.15
2023-04-18T19:10:58.807Z,5.60
2023-04-18T19:13:25.376Z,4.53
2023-04-18T19:15:51.910Z,6.65
2023-04-18T19:18:19.974Z,4.80
2023-04-18T19:20:46.797Z,4.85
2023-04-18T19:23:13.201Z,4.72
2023-04-18T19:25:39.687Z,5.10
2023-04-18T19:28:06.236Z,4.50
2023-04-18T19:30:32.682Z,5.80
2023-04-18T19:32:59.342Z,6.53
2023-04-18T19:35:25.979Z,6.38
2023-04-18T19:37:52.404Z,4.88
2023-04-18T19:40:18.902Z,4.40
2023-04-18T19:42:46.031Z,5.75
2023-04-18T19:45:13.639Z,3.83
2023-04-18T19:47:42.277Z,4.68
2023-04-18T19:50:09.084Z,4.68
2023-04-18T19:52:35.583Z,4.88
2023-04-18T19:55:02.034Z,4.60
2023-04-18T19:57:29.645Z,4.93
2023-04-18T19:59:56.463Z,4.28
2023-04-18T20:02:23.085Z,4.63
2023-04-18T20:04:49.667Z,4.95
2023-04-18T20:07:16.300Z,3.60
2023-04-18T20:09:42.768Z,4.15
2023-04-18T20:12:09.177Z,4.45
2023-04-18T20:14:35.608Z,4.25
2023-04-18T20:17:02.044Z,4.57
2023-04-18T20:19:29.598Z,4.18
2023-04-18T20:21:56.060Z,4.90
2023-04-18T20:24:23.693Z,4.70
2023-04-18T20:26:51.259Z,4.55
2023-04-18T20:29:17.721Z,4.50
2023-04-18T20:31:44.181Z,5.55
2023-04-18T20:34:10.919Z,4.97
2023-04-18T20:36:41.396Z,4.47
2023-04-18T20:39:08.841Z,6.55
2023-04-18T20:41:36.778Z,4.55
2023-04-18T20:44:06.510Z,4.15
2023-04-18T20:46:33.055Z,4.43
2023-04-18T20:48:59.669Z,5.20
2023-04-18T20:51:26.791Z,4.07
2023-04-18T20:53:53.239Z,4.63
2023-04-18T20:56:20.072Z,4.55
2023-04-18T20:58:46.536Z,4.53
2023-04-18T21:01:13.070Z,6.05
2023-04-18T21:03:39.732Z,5.68
2023-04-18T21:06:06.253Z,3.88
2023-04-18T21:08:35.018Z,4.43
2023-04-18T21:11:01.466Z,4.57
2023-04-18T21:13:27.875Z,5.40
2023-04-18T21:15:56.934Z,4.88
2023-04-18T21:18:23.721Z,4.18
2023-04-18T21:20:50.465Z,4.30
2023-04-18T21:23:16.908Z,4.20
2023-04-18T21:25:43.354Z,4.40
2023-04-18T21:28:09.795Z,4.95
2023-04-18T21:30:36.514Z,4.38
2023-04-18T21:33:03.437Z,5.80
2023-04-18T21:35:30.105Z,4.38
2023-04-18T21:37:56.763Z,5.32
2023-04-18T21:40:24.220Z,4.53
2023-04-18T21:42:53.466Z,6.65
2023-04-18T21:45:19.921Z,5.22
2023-04-18T21:47:46.716Z,5.65
2023-04-18T21:50:13.303Z,4.75
2023-04-18T21:52:39.706Z,4.25
2023-04-18T21:55:06.457Z,4.88
2023-04-18T21:57:32.898Z,5.28
2023-04-18T21:59:59.307Z,5.07
2023-04-18T22:02:27.041Z,4.63
2023-04-18T22:04:53.542Z,4.25
2023-04-18T22:07:19.978Z,4.20
2023-04-18T22:09:46.607Z,4.38
2023-04-18T22:12:14.300Z,4.30
2023-04-18T22:14:41.882Z,4.28
2023-04-18T22:17:09.105Z,4.95
2023-04-18T22:19:35.592Z,6.40
2023-04-18T22:22:02.114Z,4.47
2023-04-18T22:24:28.570Z,4.05
2023-04-18T22:26:55.017Z,5.35
2023-04-18T22:29:21.575Z,4.22
2023-04-18T22:31:47.976Z,4.70
2023-04-18T22:34:14.782Z,6.03
2023-04-18T22:36:42.604Z,4.65
2023-04-18T22:39:09.105Z,4.28
2023-04-18T22:41:35.681Z,4.78
2023-04-18T22:44:02.072Z,4.13
2023-04-18T22:46:28.568Z,3.92
2023-04-18T22:48:55.207Z,5.78
2023-04-18T22:51:23.350Z,4.72
2023-04-18T22:53:49.862Z,5.47
2023-04-18T22:56:16.348Z,5.07
2023-04-18T22:58:42.723Z,6.55
2023-04-18T23:01:09.137Z,5.15
2023-04-18T23:03:35.816Z,5.40
2023-04-18T23:06:02.364Z,4.63
2023-04-18T23:08:28.811Z,5.03
2023-04-18T23:10:55.410Z,7.68
2023-04-18T23:13:21.872Z,5.30
2023-04-18T23:15:48.346Z,6.28
2023-04-18T23:18:15.018Z,6.25
2023-04-18T23:20:41.504Z,7.20
2023-04-18T23:23:07.921Z,8.00
2023-04-18T23:25:34.434Z,7.75
2023-04-18T23:28:00.823Z,6.55
2023-04-18T23:30:27.329Z,6.65
2023-04-18T23:32:53.856Z,7.30
2023-04-18T23:35:20.350Z,7.10
2023-04-18T23:37:46.808Z,7.78
2023-04-18T23:40:13.282Z,8.73
2023-04-18T23:42:39.737Z,8.88
2023-04-18T23:45:06.500Z,8.35
2023-04-18T23:47:32.980Z,7.68
2023-04-18T23:49:59.588Z,8.00
2023-04-18T23:52:26.073Z,8.77
2023-04-18T23:54:52.562Z,7.72
2023-04-18T23:57:18.982Z,7.82
2023-04-18T23:59:45.539Z,8.48
